In Rescue
 
Open Full Screen Window  High Contrast Mode
Wind Gusting 00 knots
04
September 19, 2019 3:54 PM CDT
Weather Information
Wind Direction
  220 °
Wind Speed
  04 kt (5 mph)
Wind Gust
  00 kt (0 mph)
Altimeter
30.03 in
Visibility
10 SM
Temperature
24° C
75° F
Dewpoint
19° C
66° F
Humidity
74%
1hr Rain Fall
00.00 in.
24hr Rain Fall
01.52 in.
Sky Condition
Scattered @ 2,000 ft
VFR

METAR KFKA 192054Z AUTO 22004KT 10SM SCT020 24/19 A3003 RMK AO2 T02440188

FAA Disclaimer: The data displayed is for advisory purposes only and is not to be used for flight planning or operations.